createdAt,value
2018-05-14T00:02:08.319Z,100482.64
2018-05-14T00:04:36.660Z,100478.83
2018-05-14T00:07:04.992Z,100476.65
2018-05-14T00:09:33.353Z,100472.95
2018-05-14T00:12:01.693Z,100471.58
2018-05-14T00:14:30.040Z,100468.23
2018-05-14T00:16:58.376Z,100469.09
2018-05-14T00:19:26.737Z,100470.88
2018-05-14T00:21:55.083Z,100468.74
2018-05-14T00:24:23.429Z,100470.92
2018-05-14T00:26:51.773Z,100472.71
2018-05-14T00:29:20.129Z,100466.23
2018-05-14T00:31:48.456Z,100468.81
2018-05-14T00:34:16.819Z,100463.27
2018-05-14T00:36:45.151Z,100458.52
2018-05-14T00:39:13.502Z,100463.27
2018-05-14T00:41:41.837Z,100459.05
2018-05-14T00:44:10.195Z,100467.63
2018-05-14T00:46:38.528Z,100465.55
2018-05-14T00:49:06.884Z,100467.27
2018-05-14T00:51:35.227Z,100458.75
2018-05-14T00:54:03.579Z,100459.66
2018-05-14T00:56:31.911Z,100452.80
2018-05-14T00:59:00.273Z,100455.43
2018-05-14T01:01:28.603Z,100452.84
2018-05-14T01:03:56.937Z,100461.84
2018-05-14T01:06:25.296Z,100465.73
2018-05-14T01:08:53.634Z,100461.47
2018-05-14T01:11:21.985Z,100463.20
2018-05-14T01:13:50.315Z,100464.47
2018-05-14T01:16:18.674Z,100469.14
2018-05-14T01:18:47.008Z,100460.95
2018-05-14T01:21:15.360Z,100469.09
2018-05-14T01:23:43.708Z,100463.98
2018-05-14T01:26:12.064Z,100464.41
2018-05-14T01:28:40.396Z,100464.41
2018-05-14T01:31:08.757Z,100466.53
2018-05-14T01:33:37.096Z,100468.73
2018-05-14T01:36:05.452Z,100464.47
2018-05-14T01:38:33.788Z,100459.75
2018-05-14T01:41:02.149Z,100461.07
2018-05-14T01:43:30.489Z,100462.42
2018-05-14T01:45:58.848Z,100463.73
2018-05-14T01:48:27.193Z,100457.73
2018-05-14T01:50:55.543Z,100468.84
2018-05-14T01:53:23.878Z,100471.37
2018-05-14T01:55:52.228Z,100467.08
2018-05-14T01:58:20.566Z,100467.06
2018-05-14T02:00:48.925Z,100468.80
2018-05-14T02:03:17.265Z,100466.65
2018-05-14T02:05:45.624Z,100457.21
2018-05-14T02:08:13.961Z,100462.81
2018-05-14T02:10:42.320Z,100469.75
2018-05-14T02:13:10.658Z,100472.76
2018-05-14T02:15:39.013Z,100471.04
2018-05-14T02:18:07.352Z,100478.30
2018-05-14T02:20:35.704Z,100467.16
2018-05-14T02:23:04.059Z,100469.71
2018-05-14T02:25:32.417Z,100471.01
2018-05-14T02:28:00.756Z,100473.62
2018-05-14T02:30:29.125Z,100470.20
2018-05-14T02:32:57.464Z,100468.06
2018-05-14T02:35:25.821Z,100474.06
2018-05-14T02:37:54.161Z,100474.05
2018-05-14T02:40:22.517Z,100468.92
2018-05-14T02:42:50.845Z,100474.91
2018-05-14T02:45:19.201Z,100468.08
2018-05-14T02:47:47.533Z,100481.75
2018-05-14T02:50:15.896Z,100474.02
2018-05-14T02:52:44.232Z,100474.85
2018-05-14T02:55:12.565Z,100475.64
2018-05-14T02:57:40.917Z,100472.62
2018-05-14T03:00:09.253Z,100471.80
2018-05-14T03:02:37.609Z,100470.95
2018-05-14T03:05:05.949Z,100473.09
2018-05-14T03:07:34.293Z,100472.23
2018-05-14T03:10:02.621Z,100474.83
2018-05-14T03:12:30.973Z,100467.16
2018-05-14T03:14:59.306Z,100462.91
2018-05-14T03:17:27.656Z,100465.05
2018-05-14T03:19:55.997Z,100469.31
2018-05-14T03:22:24.357Z,100469.31
2018-05-14T03:24:52.693Z,100476.18
2018-05-14T03:27:21.045Z,100473.21
2018-05-14T03:29:49.381Z,100477.89
2018-05-14T03:32:17.733Z,100480.88
2018-05-14T03:34:46.070Z,100485.59
2018-05-14T03:37:14.420Z,100491.56
2018-05-14T03:39:42.744Z,100489.84
2018-05-14T03:42:11.096Z,100491.57
2018-05-14T03:44:39.437Z,100489.02
2018-05-14T03:47:07.797Z,100490.30
2018-05-14T03:49:36.124Z,100488.17
2018-05-14T03:52:04.476Z,100490.75
2018-05-14T03:54:32.825Z,100487.73
2018-05-14T03:57:01.168Z,100491.15
2018-05-14T03:59:41.333Z,100493.72
2018-05-14T04:02:23.206Z,100490.72
2018-05-14T04:05:03.173Z,100493.31
2018-05-14T04:07:31.530Z,100492.44
2018-05-14T04:09:59.870Z,100500.98
2018-05-14T04:12:29.137Z,100491.58
2018-05-14T04:14:57.473Z,100494.16
2018-05-14T04:17:25.828Z,100496.31
2018-05-14T04:19:54.162Z,100498.05
2018-05-14T04:22:22.512Z,100497.17
2018-05-14T04:24:50.853Z,100499.33
2018-05-14T04:27:19.213Z,100506.16
2018-05-14T04:29:47.544Z,100510.44
2018-05-14T04:32:15.905Z,100512.59
2018-05-14T04:34:44.237Z,100516.88
2018-05-14T04:37:12.594Z,100510.44
2018-05-14T04:39:40.928Z,100506.16
2018-05-14T04:42:09.296Z,100510.44
2018-05-14T04:44:37.620Z,100507.03
2018-05-14T04:47:05.977Z,100509.16
2018-05-14T04:49:34.320Z,100513.88
2018-05-14T04:52:02.722Z,100513.03
2018-05-14T04:54:31.053Z,100518.16
2018-05-14T04:56:59.412Z,100517.30
2018-05-14T04:59:27.752Z,100520.70
2018-05-14T05:01:56.136Z,100520.70
2018-05-14T05:04:24.476Z,100527.98
2018-05-14T05:06:52.848Z,100528.41
2018-05-14T05:09:21.199Z,100527.99
2018-05-14T05:11:49.561Z,100529.67
2018-05-14T05:14:17.907Z,100533.98
2018-05-14T05:16:46.270Z,100532.67
2018-05-14T05:19:14.612Z,100530.54
2018-05-14T05:21:42.981Z,100536.95
2018-05-14T05:24:11.317Z,100536.95
2018-05-14T05:26:39.682Z,100544.22
2018-05-14T05:29:08.036Z,100544.66
2018-05-14T05:31:36.371Z,100541.61
2018-05-14T05:34:04.730Z,100544.59
2018-05-14T05:36:33.208Z,100548.02
2018-05-14T05:39:01.573Z,100542.42
2018-05-14T05:41:29.911Z,100539.81
2018-05-14T05:43:58.264Z,100544.46
2018-05-14T05:46:26.604Z,100551.21
2018-05-14T05:48:54.956Z,100555.87
2018-05-14T05:51:23.285Z,100551.91
2018-05-14T05:53:51.651Z,100550.16
2018-05-14T05:56:19.985Z,100556.95
2018-05-14T05:58:48.348Z,100555.55
2018-05-14T06:01:16.680Z,100558.84
2018-05-14T06:03:45.025Z,100557.08
2018-05-14T06:06:13.356Z,100555.31
2018-05-14T06:08:41.717Z,100559.03
2018-05-14T06:11:10.064Z,100560.69
2018-05-14T06:13:38.421Z,100562.20
2018-05-14T06:16:07.553Z,100559.56
2018-05-14T06:18:35.902Z,100561.14
2018-05-14T06:21:04.226Z,100560.56
2018-05-14T06:23:32.592Z,100565.12
2018-05-14T06:26:00.933Z,100570.58
2018-05-14T06:28:29.283Z,100564.77
2018-05-14T06:30:57.614Z,100570.72
2018-05-14T06:33:25.966Z,100570.13
2018-05-14T06:35:54.289Z,100571.79
2018-05-14T06:39:19.820Z,100573.64
2018-05-14T06:41:48.170Z,100579.84
2018-05-14T06:44:16.622Z,100573.02
2018-05-14T06:46:44.848Z,100580.30
2018-05-14T06:49:13.204Z,100587.27
2018-05-14T06:51:41.532Z,100589.25
2018-05-14T06:54:10.431Z,100594.34
2018-05-14T06:56:38.613Z,100595.88
2018-05-14T06:59:06.965Z,100593.05
2018-05-14T07:01:35.288Z,100595.02
2018-05-14T07:04:03.644Z,100601.04
2018-05-14T07:06:32.464Z,100598.74
2018-05-14T07:09:00.800Z,100599.92
2018-05-14T07:11:29.151Z,100596.81
2018-05-14T07:13:57.996Z,100605.73
2018-05-14T07:16:26.329Z,100605.33
2018-05-14T07:18:54.760Z,100596.80
2018-05-14T07:21:23.120Z,100602.10
2018-05-14T07:23:51.448Z,100606.59
2018-05-14T07:26:19.776Z,100598.23
2018-05-14T07:28:48.249Z,100598.44
2018-05-14T07:31:16.598Z,100600.37
2018-05-14T07:33:44.956Z,100603.42
2018-05-14T07:36:13.358Z,100601.55
2018-05-14T07:38:41.623Z,100601.59
2018-05-14T07:41:10.148Z,100602.03
2018-05-14T07:43:38.317Z,100608.04
2018-05-14T07:46:06.728Z,100616.08
2018-05-14T07:48:34.981Z,100610.65
2018-05-14T07:51:03.312Z,100615.88
2018-05-14T07:53:31.661Z,100615.05
2018-05-14T07:56:00.021Z,100610.78
2018-05-14T07:58:28.377Z,100610.94
2018-05-14T08:00:56.688Z,100614.09
2018-05-14T08:03:25.039Z,100619.34
2018-05-14T08:05:53.377Z,100610.14
2018-05-14T08:08:21.716Z,100616.93
2018-05-14T08:10:50.050Z,100613.14
2018-05-14T08:13:18.373Z,100608.64
2018-05-14T08:15:46.721Z,100620.36
2018-05-14T08:18:15.049Z,100606.44
2018-05-14T08:20:43.392Z,100619.42
2018-05-14T08:23:11.717Z,100616.78
2018-05-14T08:25:40.056Z,100616.09
2018-05-14T08:28:08.388Z,100619.59
2018-05-14T08:30:36.733Z,100619.77
2018-05-14T08:33:05.056Z,100619.95
2018-05-14T08:35:33.406Z,100616.72
2018-05-14T08:38:01.732Z,100623.17
2018-05-14T08:40:30.071Z,100622.58
2018-05-14T08:42:58.400Z,100620.77
2018-05-14T08:45:26.740Z,100618.30
2018-05-14T08:47:55.103Z,100626.11
2018-05-14T08:50:23.404Z,100618.59
2018-05-14T08:52:51.723Z,100620.54
2018-05-14T08:55:20.072Z,100627.45
2018-05-14T08:57:48.397Z,100627.52
2018-05-14T09:00:16.739Z,100628.39
2018-05-14T09:02:45.073Z,100628.87
2018-05-14T09:05:13.426Z,100630.78
2018-05-14T09:07:41.745Z,100627.88
2018-05-14T09:10:10.088Z,100621.14
2018-05-14T09:12:38.417Z,100625.88
2018-05-14T09:15:06.761Z,100617.19
2018-05-14T09:17:35.089Z,100621.59
2018-05-14T09:20:03.433Z,100618.12
2018-05-14T09:22:31.769Z,100622.21
2018-05-14T09:25:00.105Z,100616.27
2018-05-14T09:27:28.425Z,100613.98
2018-05-14T09:29:56.773Z,100612.41
2018-05-14T09:32:25.095Z,100613.53
2018-05-14T09:34:53.448Z,100614.81
2018-05-14T09:37:21.869Z,100614.66
2018-05-14T09:39:50.112Z,100612.34
2018-05-14T09:42:18.441Z,100616.44
2018-05-14T09:44:46.780Z,100621.10
2018-05-14T09:47:15.105Z,100616.23
2018-05-14T09:49:43.448Z,100615.22
2018-05-14T09:52:11.772Z,100618.33
2018-05-14T09:54:40.105Z,100620.34
2018-05-14T09:57:08.427Z,100611.28
2018-05-14T09:59:36.773Z,100617.51
2018-05-14T10:02:05.105Z,100620.84
2018-05-14T10:04:33.448Z,100615.59
2018-05-14T10:07:01.775Z,100627.75
2018-05-14T10:09:30.128Z,100613.81
2018-05-14T10:11:58.904Z,100621.47
2018-05-14T10:14:27.235Z,100625.53
2018-05-14T10:16:55.584Z,100627.03
2018-05-14T10:19:23.899Z,100625.10
2018-05-14T10:21:52.244Z,100621.61
2018-05-14T10:24:20.566Z,100619.67
2018-05-14T10:26:48.917Z,100618.05
2018-05-14T10:29:17.244Z,100625.66
2018-05-14T10:31:45.594Z,100618.00
2018-05-14T10:34:13.921Z,100610.80
2018-05-14T10:36:42.269Z,100615.75
2018-05-14T10:39:10.592Z,100613.44
2018-05-14T10:41:38.936Z,100615.48
2018-05-14T10:44:07.265Z,100605.27
2018-05-14T10:46:35.612Z,100608.03
2018-05-14T10:49:03.933Z,100610.06
2018-05-14T10:51:32.285Z,100603.39
2018-05-14T10:54:00.609Z,100612.43
2018-05-14T10:56:28.959Z,100612.77
2018-05-14T10:58:57.290Z,100611.48
2018-05-14T11:01:25.646Z,100609.73
2018-05-14T11:03:54.022Z,100604.71
2018-05-14T11:06:22.330Z,100607.78
2018-05-14T11:08:50.686Z,100606.19
2018-05-14T11:11:19.037Z,100609.66
2018-05-14T11:13:47.360Z,100606.91
2018-05-14T11:16:15.709Z,100605.89
2018-05-14T11:18:44.114Z,100609.69
2018-05-14T11:21:12.388Z,100607.45
2018-05-14T11:23:40.717Z,100603.53
2018-05-14T11:26:09.064Z,100602.32
2018-05-14T11:28:37.392Z,100604.34
2018-05-14T11:31:05.727Z,100605.13
2018-05-14T11:33:34.053Z,100610.66
2018-05-14T11:36:02.404Z,100608.23
2018-05-14T11:38:30.730Z,100605.59
2018-05-14T11:40:59.090Z,100600.64
2018-05-14T11:43:27.420Z,100606.92
2018-05-14T11:45:55.753Z,100608.05
2018-05-14T11:48:24.126Z,100596.35
2018-05-14T11:50:52.513Z,100602.02
2018-05-14T11:53:20.800Z,100609.30
2018-05-14T11:55:49.136Z,100604.34
2018-05-14T11:58:18.064Z,100594.62
2018-05-14T12:00:46.392Z,100601.98
2018-05-14T12:03:14.844Z,100603.80
2018-05-14T12:05:43.079Z,100600.98
2018-05-14T12:08:11.430Z,100602.20
2018-05-14T12:10:39.753Z,100603.66
2018-05-14T12:13:08.105Z,100597.59
2018-05-14T12:15:36.423Z,100606.59
2018-05-14T12:18:05.235Z,100599.45
2018-05-14T12:20:34.607Z,100600.55
2018-05-14T12:23:03.276Z,100596.80
2018-05-14T12:25:32.035Z,100601.05
2018-05-14T12:28:00.963Z,100588.50
2018-05-14T12:30:29.633Z,100590.48
2018-05-14T12:32:58.312Z,100589.69
2018-05-14T12:35:26.949Z,100590.96
2018-05-14T12:37:55.601Z,100592.17
2018-05-14T12:40:24.765Z,100582.47
2018-05-14T12:42:53.860Z,100590.23
2018-05-14T12:45:23.729Z,100592.14
2018-05-14T12:47:52.402Z,100584.23
2018-05-14T12:50:21.023Z,100581.53
2018-05-14T12:52:49.710Z,100581.23
2018-05-14T12:55:19.199Z,100574.78
2018-05-14T12:57:47.984Z,100573.01
2018-05-14T13:00:16.569Z,100573.35
2018-05-14T13:02:45.252Z,100580.74
2018-05-14T13:05:14.420Z,100569.97
2018-05-14T13:07:43.055Z,100570.69
2018-05-14T13:10:11.736Z,100571.93
2018-05-14T13:12:40.589Z,100573.77
2018-05-14T13:15:09.171Z,100589.10
2018-05-14T13:17:38.220Z,100574.73
2018-05-14T13:20:06.813Z,100586.30
2018-05-14T13:22:35.570Z,100585.98
2018-05-14T13:25:04.316Z,100587.03
2018-05-14T13:27:33.169Z,100586.28
2018-05-14T13:30:01.780Z,100589.77
2018-05-14T13:32:30.560Z,100592.22
2018-05-14T13:35:00.370Z,100587.64
2018-05-14T13:37:29.193Z,100591.14
2018-05-14T13:39:57.553Z,100592.47
2018-05-14T13:42:25.905Z,100586.37
2018-05-14T13:44:54.237Z,100599.70
2018-05-14T13:47:23.427Z,100602.14
2018-05-14T13:49:51.766Z,100604.38
2018-05-14T13:52:20.123Z,100607.06
2018-05-14T13:54:48.457Z,100597.17
2018-05-14T13:57:16.785Z,100589.67
2018-05-14T13:59:45.120Z,100589.55
2018-05-14T14:02:13.444Z,100594.33
2018-05-14T14:04:41.803Z,100591.19
2018-05-14T14:07:11.205Z,100591.88
2018-05-14T14:09:39.548Z,100585.53
2018-05-14T14:12:07.873Z,100590.78
2018-05-14T14:14:36.229Z,100585.31
2018-05-14T14:17:04.583Z,100599.04
2018-05-14T14:19:32.897Z,100596.19
2018-05-14T14:22:01.227Z,100596.25
2018-05-14T14:24:29.594Z,100596.11
2018-05-14T14:26:57.916Z,100592.98
2018-05-14T14:29:26.265Z,100588.89
2018-05-14T14:31:54.597Z,100590.66
2018-05-14T14:34:22.949Z,100589.37
2018-05-14T14:36:51.277Z,100591.16
2018-05-14T14:39:19.657Z,100588.53
2018-05-14T14:41:48.105Z,100584.81
2018-05-14T14:44:16.436Z,100580.17
2018-05-14T14:46:45.777Z,100584.56
2018-05-14T14:49:14.211Z,100587.33
2018-05-14T14:51:42.453Z,100581.98
2018-05-14T14:54:10.804Z,100590.77
2018-05-14T14:56:39.133Z,100585.52
2018-05-14T14:59:07.482Z,100575.81
2018-05-14T15:01:35.812Z,100574.57
2018-05-14T15:04:04.157Z,100577.16
2018-05-14T15:06:32.565Z,100578.97
2018-05-14T15:09:00.908Z,100573.02
2018-05-14T15:11:29.232Z,100577.33
2018-05-14T15:13:57.579Z,100581.19
2018-05-14T15:16:25.918Z,100581.66
2018-05-14T15:18:54.261Z,100581.98
2018-05-14T15:21:22.678Z,100585.66
2018-05-14T15:23:51.092Z,100592.41
2018-05-14T15:26:20.409Z,100589.61
2018-05-14T15:28:48.752Z,100585.00
2018-05-14T15:31:17.073Z,100580.02
2018-05-14T15:33:45.426Z,100584.34
2018-05-14T15:36:13.762Z,100578.11
2018-05-14T15:38:42.109Z,100574.44
2018-05-14T15:41:10.441Z,100571.39
2018-05-14T15:43:38.792Z,100572.03
2018-05-14T15:46:07.208Z,100568.84
2018-05-14T15:48:35.557Z,100573.17
2018-05-14T15:51:03.881Z,100568.97
2018-05-14T15:53:32.224Z,100575.33
2018-05-14T15:56:00.549Z,100574.92
2018-05-14T15:58:28.872Z,100569.45
2018-05-14T16:00:57.223Z,100561.31
2018-05-14T16:03:25.554Z,100560.69
2018-05-14T16:05:54.940Z,100563.75
2018-05-14T16:08:23.267Z,100562.11
2018-05-14T16:10:51.612Z,100564.81
2018-05-14T16:13:19.937Z,100562.37
2018-05-14T16:15:48.287Z,100559.47
2018-05-14T16:18:16.604Z,100563.91
2018-05-14T16:20:45.064Z,100559.80
2018-05-14T16:23:13.288Z,100560.84
2018-05-14T16:25:41.684Z,100562.38
2018-05-14T16:28:10.012Z,100569.62
2018-05-14T16:30:38.364Z,100565.36
2018-05-14T16:33:06.689Z,100564.22
2018-05-14T16:35:35.040Z,100570.44
2018-05-14T16:38:03.384Z,100567.00
2018-05-14T16:43:05.367Z,100564.64
2018-05-14T16:45:33.721Z,100568.93
2018-05-14T16:48:02.068Z,100568.80
2018-05-14T16:50:30.429Z,100574.47
2018-05-14T16:52:58.757Z,100567.94
2018-05-14T16:55:27.127Z,100571.79
2018-05-14T16:57:55.477Z,100563.95
2018-05-14T17:00:23.791Z,100570.83
2018-05-14T17:02:52.124Z,100569.13
2018-05-14T17:05:20.485Z,100570.53
2018-05-14T17:07:48.821Z,100570.55
2018-05-14T17:10:17.186Z,100574.52
2018-05-14T17:12:45.526Z,100573.23
2018-05-14T17:15:13.872Z,100570.64
2018-05-14T17:17:42.205Z,100579.66
2018-05-14T17:20:10.557Z,100581.47
2018-05-14T17:22:38.885Z,100580.48
2018-05-14T17:25:07.240Z,100587.14
2018-05-14T17:27:35.591Z,100587.26
2018-05-14T17:30:04.310Z,100585.72
2018-05-14T17:32:32.630Z,100588.53
2018-05-14T17:35:00.985Z,100593.28
2018-05-14T17:37:29.326Z,100591.44
2018-05-14T17:39:57.685Z,100593.66
2018-05-14T17:42:26.017Z,100601.02
2018-05-14T17:44:54.370Z,100596.17
2018-05-14T17:47:22.701Z,100593.73
2018-05-14T17:49:51.056Z,100597.73
2018-05-14T17:52:19.395Z,100601.68
2018-05-14T17:54:47.756Z,100602.25
2018-05-14T17:57:16.076Z,100611.61
2018-05-14T17:59:44.437Z,100610.88
2018-05-14T18:02:12.769Z,100612.70
2018-05-14T18:04:41.117Z,100608.28
2018-05-14T18:07:09.463Z,100607.11
2018-05-14T18:09:37.793Z,100606.98
2018-05-14T18:12:06.147Z,100608.83
2018-05-14T18:14:34.465Z,100610.80
2018-05-14T18:17:02.817Z,100614.86
2018-05-14T18:19:36.745Z,100614.02
2018-05-14T18:22:10.613Z,100621.09
2018-05-14T18:24:38.953Z,100621.54
2018-05-14T18:27:09.097Z,100629.78
2018-05-14T18:29:38.765Z,100625.03
2018-05-14T18:32:07.112Z,100633.30
2018-05-14T18:34:39.350Z,100634.86
2018-05-14T18:37:08.117Z,100632.82
2018-05-14T18:39:36.456Z,100640.33
2018-05-14T18:42:04.797Z,100645.34
2018-05-14T18:44:34.025Z,100651.50
2018-05-14T18:47:02.393Z,100652.06
2018-05-14T18:49:30.907Z,100654.55
2018-05-14T18:51:59.282Z,100664.34
2018-05-14T18:54:27.594Z,100668.88
2018-05-14T18:56:55.953Z,100662.27
2018-05-14T18:59:24.351Z,100665.73
2018-05-14T19:01:52.944Z,100667.14
2018-05-14T19:04:21.285Z,100672.42
2018-05-14T19:06:49.827Z,100678.00
2018-05-14T19:09:18.149Z,100674.33
2018-05-14T19:11:52.449Z,100684.09
2018-05-14T19:14:20.812Z,100685.89
2018-05-14T19:16:54.896Z,100687.59
2018-05-14T19:19:23.673Z,100692.03
2018-05-14T19:21:52.030Z,100694.87
2018-05-14T19:24:20.601Z,100699.55
2018-05-14T19:26:50.131Z,100708.78
2018-05-14T19:29:24.243Z,100712.34
2018-05-14T19:31:52.545Z,100714.09
2018-05-14T19:34:26.415Z,100716.66
2018-05-14T19:36:54.757Z,100721.89
2018-05-14T19:39:28.824Z,100722.75
2018-05-14T19:41:57.171Z,100729.56
2018-05-14T19:44:25.496Z,100734.47
2018-05-14T19:46:53.852Z,100733.32
2018-05-14T19:49:22.188Z,100734.22
2018-05-14T19:51:50.833Z,100735.16
2018-05-14T19:54:19.547Z,100737.89
2018-05-14T19:56:48.264Z,100741.59
2018-05-14T19:59:17.056Z,100734.72
2018-05-14T20:01:45.789Z,100742.56
2018-05-14T20:04:14.555Z,100746.42
2018-05-14T20:06:43.247Z,100743.67
2018-05-14T20:09:11.545Z,100740.65
2018-05-14T20:11:39.895Z,100742.56
2018-05-14T20:14:08.227Z,100741.43
2018-05-14T20:16:36.576Z,100744.06
2018-05-14T20:19:04.906Z,100739.16
2018-05-14T20:21:33.519Z,100741.45
2018-05-14T20:24:02.193Z,100740.61
2018-05-14T20:26:31.061Z,100741.95
2018-05-14T20:28:59.825Z,100742.84
2018-05-14T20:31:28.664Z,100739.91
2018-05-14T20:33:57.374Z,100743.37
2018-05-14T20:36:26.179Z,100745.16
2018-05-14T20:38:54.824Z,100742.67
2018-05-14T20:41:23.562Z,100746.00
2018-05-14T20:43:52.231Z,100741.16
2018-05-14T20:46:21.886Z,100747.16
2018-05-14T20:48:50.428Z,100753.45
2018-05-14T20:51:18.744Z,100751.41
2018-05-14T20:53:47.088Z,100753.62
2018-05-14T20:56:15.424Z,100754.66
2018-05-14T20:58:43.777Z,100761.17
2018-05-14T21:01:12.124Z,100761.61
2018-05-14T21:03:40.472Z,100760.57
2018-05-14T21:06:08.798Z,100765.48
2018-05-14T21:08:37.150Z,100770.11
2018-05-14T21:11:05.477Z,100768.44
2018-05-14T21:13:33.821Z,100776.70
2018-05-14T21:16:02.160Z,100781.14
2018-05-14T21:18:30.513Z,100788.31
2018-05-14T21:20:58.836Z,100782.13
2018-05-14T21:23:27.193Z,100796.70
2018-05-14T21:25:55.522Z,100796.28
2018-05-14T21:28:23.869Z,100790.13
2018-05-14T21:30:52.209Z,100791.83
2018-05-14T21:33:20.548Z,100800.84
2018-05-14T21:35:48.877Z,100811.66
2018-05-14T21:38:17.221Z,100811.95
2018-05-14T21:40:45.541Z,100807.23
2018-05-14T21:43:13.891Z,100818.50
2018-05-14T21:45:42.217Z,100818.92
2018-05-14T21:48:10.560Z,100816.70
2018-05-14T21:50:38.884Z,100823.54
2018-05-14T21:53:07.232Z,100823.61
2018-05-14T21:55:35.558Z,100817.20
2018-05-14T21:58:03.901Z,100825.41
2018-05-14T22:00:32.224Z,100819.43
2018-05-14T22:03:00.564Z,100820.30
2018-05-14T22:05:28.885Z,100825.91
2018-05-14T22:07:57.225Z,100830.70
2018-05-14T22:10:25.548Z,100830.34
2018-05-14T22:12:53.894Z,100836.84
2018-05-14T22:15:22.220Z,100837.78
2018-05-14T22:17:50.564Z,100837.36
2018-05-14T22:20:18.892Z,100836.92
2018-05-14T22:22:47.235Z,100836.98
2018-05-14T22:25:15.560Z,100837.53
2018-05-14T22:27:43.910Z,100840.06
2018-05-14T22:30:12.233Z,100843.63
2018-05-14T22:32:40.585Z,100845.83
2018-05-14T22:35:08.909Z,100846.74
2018-05-14T22:37:37.259Z,100853.64
2018-05-14T22:40:05.589Z,100850.58
2018-05-14T22:42:33.940Z,100845.89
2018-05-14T22:45:02.280Z,100852.02
2018-05-14T22:47:30.627Z,100851.63
2018-05-14T22:49:58.944Z,100849.09
2018-05-14T22:52:27.273Z,100851.72
2018-05-14T22:54:55.616Z,100850.95
2018-05-14T22:57:23.932Z,100852.67
2018-05-14T22:59:52.272Z,100856.20
2018-05-14T23:02:20.592Z,100858.35
2018-05-14T23:04:48.942Z,100858.34
2018-05-14T23:07:17.263Z,100863.55
2018-05-14T23:09:45.604Z,100862.73
2018-05-14T23:12:13.929Z,100868.39
2018-05-14T23:14:42.268Z,100867.96
2018-05-14T23:17:10.609Z,100867.53
2018-05-14T23:19:38.966Z,100864.13
2018-05-14T23:22:07.294Z,100865.88
2018-05-14T23:24:35.639Z,100867.20
2018-05-14T23:27:03.955Z,100872.81
2018-05-14T23:29:32.309Z,100868.94
2018-05-14T23:32:00.636Z,100870.26
2018-05-14T23:34:28.985Z,100865.53
2018-05-14T23:36:57.322Z,100872.00
2018-05-14T23:39:25.669Z,100872.41
2018-05-14T23:41:54.001Z,100877.14
2018-05-14T23:44:22.348Z,100876.28
2018-05-14T23:46:50.681Z,100875.88
2018-05-14T23:49:19.033Z,100878.93
2018-05-14T23:51:47.364Z,100878.09
2018-05-14T23:54:15.721Z,100876.85
2018-05-14T23:56:44.054Z,100879.44
2018-05-14T23:59:12.405Z,100879.52
